sensor_id;sensor_type;location;lat;lon;timestamp;temperature;humidity
44513;DHT22;30219;50.588;9.504;2023-01-08T00:01:52;8.40;99.90
44513;DHT22;30219;50.588;9.504;2023-01-08T00:04:17;8.40;99.90
44513;DHT22;30219;50.588;9.504;2023-01-08T00:06:43;8.40;99.90
44513;DHT22;30219;50.588;9.504;2023-01-08T00:09:10;8.30;99.90
44513;DHT22;30219;50.588;9.504;2023-01-08T00:11:35;8.30;99.90
44513;DHT22;30219;50.588;9.504;2023-01-08T00:14:01;8.30;99.90
44513;DHT22;30219;50.588;9.504;2023-01-08T00:16:27;8.30;99.90
44513;DHT22;30219;50.588;9.504;2023-01-08T00:18:53;8.20;99.90
44513;DHT22;30219;50.588;9.504;2023-01-08T00:21:18;8.10;99.90
44513;DHT22;30219;50.588;9.504;2023-01-08T00:23:45;8.00;99.90
44513;DHT22;30219;50.588;9.504;2023-01-08T00:26:11;7.90;99.90
44513;DHT22;30219;50.588;9.504;2023-01-08T00:28:37;7.90;99.90
44513;DHT22;30219;50.588;9.504;2023-01-08T00:31:07;8.00;99.90
44513;DHT22;30219;50.588;9.504;2023-01-08T00:33:33;7.90;99.90
44513;DHT22;30219;50.588;9.504;2023-01-08T00:35:59;7.90;99.90
44513;DHT22;30219;50.588;9.504;2023-01-08T00:38:26;7.80;99.90
44513;DHT22;30219;50.588;9.504;2023-01-08T00:40:51;7.90;99.90
44513;DHT22;30219;50.588;9.504;2023-01-08T00:43:17;7.80;99.90
44513;DHT22;30219;50.588;9.504;2023-01-08T00:45:42;7.80;99.90
44513;DHT22;30219;50.588;9.504;2023-01-08T00:48:09;7.80;99.90
44513;DHT22;30219;50.588;9.504;2023-01-08T00:50:34;7.80;99.90
44513;DHT22;30219;50.588;9.504;2023-01-08T00:53:00;7.80;99.90
44513;DHT22;30219;50.588;9.504;2023-01-08T00:55:26;7.80;99.90
44513;DHT22;30219;50.588;9.504;2023-01-08T00:57:52;7.70;99.90
44513;DHT22;30219;50.588;9.504;2023-01-08T01:00:17;7.80;99.90
44513;DHT22;30219;50.588;9.504;2023-01-08T01:02:43;7.80;99.90
44513;DHT22;30219;50.588;9.504;2023-01-08T01:05:10;7.80;99.90
44513;DHT22;30219;50.588;9.504;2023-01-08T01:07:39;7.80;99.90
44513;DHT22;30219;50.588;9.504;2023-01-08T01:10:05;7.80;99.90
44513;DHT22;30219;50.588;9.504;2023-01-08T01:12:31;7.80;99.90
44513;DHT22;30219;50.588;9.504;2023-01-08T01:14:57;7.80;99.90
44513;DHT22;30219;50.588;9.504;2023-01-08T01:17:22;7.80;99.90
44513;DHT22;30219;50.588;9.504;2023-01-08T01:19:48;7.80;99.90
44513;DHT22;30219;50.588;9.504;2023-01-08T01:22:13;7.80;99.90
44513;DHT22;30219;50.588;9.504;2023-01-08T01:24:39;7.90;99.90
44513;DHT22;30219;50.588;9.504;2023-01-08T01:27:04;7.90;99.90
44513;DHT22;30219;50.588;9.504;2023-01-08T01:29:30;7.90;99.90
44513;DHT22;30219;50.588;9.504;2023-01-08T01:31:55;7.90;99.90
44513;DHT22;30219;50.588;9.504;2023-01-08T01:34:21;7.90;99.90
44513;DHT22;30219;50.588;9.504;2023-01-08T01:36:46;7.90;99.90
44513;DHT22;30219;50.588;9.504;2023-01-08T01:39:12;7.90;99.90
44513;DHT22;30219;50.588;9.504;2023-01-08T01:41:43;7.90;99.90
44513;DHT22;30219;50.588;9.504;2023-01-08T01:44:35;7.90;99.90
44513;DHT22;30219;50.588;9.504;2023-01-08T01:52:27;7.90;99.90
44513;DHT22;30219;50.588;9.504;2023-01-08T01:54:54;8.00;99.90
44513;DHT22;30219;50.588;9.504;2023-01-08T01:57:20;8.00;99.90
44513;DHT22;30219;50.588;9.504;2023-01-08T01:59:46;8.00;99.90
44513;DHT22;30219;50.588;9.504;2023-01-08T02:02:12;8.00;99.90
44513;DHT22;30219;50.588;9.504;2023-01-08T02:04:38;8.10;99.90
44513;DHT22;30219;50.588;9.504;2023-01-08T02:13:04;8.00;99.90
44513;DHT22;30219;50.588;9.504;2023-01-08T02:18:47;8.10;99.90
44513;DHT22;30219;50.588;9.504;2023-01-08T02:21:33;8.10;99.90
44513;DHT22;30219;50.588;9.504;2023-01-08T02:24:14;8.10;99.90
44513;DHT22;30219;50.588;9.504;2023-01-08T02:26:42;8.10;99.90
44513;DHT22;30219;50.588;9.504;2023-01-08T02:29:14;8.10;99.90
44513;DHT22;30219;50.588;9.504;2023-01-08T02:31:41;8.10;99.90
44513;DHT22;30219;50.588;9.504;2023-01-08T02:34:09;8.10;99.90
44513;DHT22;30219;50.588;9.504;2023-01-08T02:36:42;8.10;99.90
44513;DHT22;30219;50.588;9.504;2023-01-08T02:42:34;8.00;99.90
44513;DHT22;30219;50.588;9.504;2023-01-08T02:51:12;8.10;99.90
44513;DHT22;30219;50.588;9.504;2023-01-08T02:53:46;8.10;99.90
44513;DHT22;30219;50.588;9.504;2023-01-08T02:56:35;8.10;99.90
44513;DHT22;30219;50.588;9.504;2023-01-08T02:59:04;8.00;99.90
44513;DHT22;30219;50.588;9.504;2023-01-08T03:01:33;8.00;99.90
44513;DHT22;30219;50.588;9.504;2023-01-08T03:04:03;8.00;99.90
44513;DHT22;30219;50.588;9.504;2023-01-08T03:06:31;8.00;99.90
44513;DHT22;30219;50.588;9.504;2023-01-08T03:08:58;8.10;99.90
44513;DHT22;30219;50.588;9.504;2023-01-08T03:11:29;8.10;99.90
44513;DHT22;30219;50.588;9.504;2023-01-08T03:16:38;8.10;99.90
44513;DHT22;30219;50.588;9.504;2023-01-08T03:19:22;8.10;99.90
44513;DHT22;30219;50.588;9.504;2023-01-08T03:21:50;8.10;99.90
44513;DHT22;30219;50.588;9.504;2023-01-08T03:24:22;8.10;99.90
44513;DHT22;30219;50.588;9.504;2023-01-08T03:26:51;8.10;99.90
44513;DHT22;30219;50.588;9.504;2023-01-08T03:29:19;8.10;99.90
44513;DHT22;30219;50.588;9.504;2023-01-08T03:31:46;8.10;99.90
44513;DHT22;30219;50.588;9.504;2023-01-08T03:34:13;8.10;99.90
44513;DHT22;30219;50.588;9.504;2023-01-08T03:36:43;8.10;99.90
44513;DHT22;30219;50.588;9.504;2023-01-08T03:39:21;8.10;99.90
44513;DHT22;30219;50.588;9.504;2023-01-08T03:41:50;8.10;99.90
44513;DHT22;30219;50.588;9.504;2023-01-08T03:44:17;8.10;99.90
44513;DHT22;30219;50.588;9.504;2023-01-08T03:46:50;8.10;99.90
44513;DHT22;30219;50.588;9.504;2023-01-08T03:49:17;8.10;99.90
44513;DHT22;30219;50.588;9.504;2023-01-08T03:51:45;8.00;99.90
44513;DHT22;30219;50.588;9.504;2023-01-08T03:54:17;8.00;99.90
44513;DHT22;30219;50.588;9.504;2023-01-08T03:56:43;8.00;99.90
44513;DHT22;30219;50.588;9.504;2023-01-08T03:59:13;8.00;99.90
44513;DHT22;30219;50.588;9.504;2023-01-08T04:01:39;7.90;99.90
44513;DHT22;30219;50.588;9.504;2023-01-08T04:04:05;7.90;99.90
44513;DHT22;30219;50.588;9.504;2023-01-08T04:06:30;7.90;99.90
44513;DHT22;30219;50.588;9.504;2023-01-08T04:08:56;7.90;99.90
44513;DHT22;30219;50.588;9.504;2023-01-08T04:11:22;7.90;99.90
44513;DHT22;30219;50.588;9.504;2023-01-08T04:13:47;7.90;99.90
44513;DHT22;30219;50.588;9.504;2023-01-08T04:16:13;7.90;99.90
44513;DHT22;30219;50.588;9.504;2023-01-08T04:18:38;7.80;99.90
44513;DHT22;30219;50.588;9.504;2023-01-08T04:21:04;7.70;99.90
44513;DHT22;30219;50.588;9.504;2023-01-08T04:23:29;7.70;99.90
44513;DHT22;30219;50.588;9.504;2023-01-08T04:25:55;7.70;99.90
44513;DHT22;30219;50.588;9.504;2023-01-08T04:28:21;7.70;99.90
44513;DHT22;30219;50.588;9.504;2023-01-08T04:30:47;7.70;99.90
44513;DHT22;30219;50.588;9.504;2023-01-08T04:33:12;7.80;99.90
44513;DHT22;30219;50.588;9.504;2023-01-08T04:35:38;7.80;99.90
44513;DHT22;30219;50.588;9.504;2023-01-08T04:38:04;7.70;99.90
44513;DHT22;30219;50.588;9.504;2023-01-08T04:40:31;7.70;99.90
44513;DHT22;30219;50.588;9.504;2023-01-08T04:42:57;7.70;99.90
44513;DHT22;30219;50.588;9.504;2023-01-08T04:45:22;7.80;99.90
44513;DHT22;30219;50.588;9.504;2023-01-08T04:47:48;7.70;99.90
44513;DHT22;30219;50.588;9.504;2023-01-08T04:50:19;7.90;99.90
44513;DHT22;30219;50.588;9.504;2023-01-08T04:52:44;7.80;99.90
44513;DHT22;30219;50.588;9.504;2023-01-08T04:55:10;7.70;99.90
44513;DHT22;30219;50.588;9.504;2023-01-08T04:57:35;7.70;99.90
44513;DHT22;30219;50.588;9.504;2023-01-08T05:00:01;7.70;99.90
44513;DHT22;30219;50.588;9.504;2023-01-08T05:02:26;7.70;99.90
44513;DHT22;30219;50.588;9.504;2023-01-08T05:04:52;7.60;99.90
44513;DHT22;30219;50.588;9.504;2023-01-08T05:07:17;7.60;99.90
44513;DHT22;30219;50.588;9.504;2023-01-08T05:09:43;7.60;99.90
44513;DHT22;30219;50.588;9.504;2023-01-08T05:12:08;7.60;99.90
44513;DHT22;30219;50.588;9.504;2023-01-08T05:14:34;7.60;99.90
44513;DHT22;30219;50.588;9.504;2023-01-08T05:16:59;7.60;99.90
44513;DHT22;30219;50.588;9.504;2023-01-08T05:19:25;7.50;99.90
44513;DHT22;30219;50.588;9.504;2023-01-08T05:21:51;7.50;99.90
44513;DHT22;30219;50.588;9.504;2023-01-08T05:24:16;7.50;99.90
44513;DHT22;30219;50.588;9.504;2023-01-08T05:26:42;7.50;99.90
44513;DHT22;30219;50.588;9.504;2023-01-08T05:29:08;7.50;99.90
44513;DHT22;30219;50.588;9.504;2023-01-08T05:31:34;7.60;99.90
44513;DHT22;30219;50.588;9.504;2023-01-08T05:34:00;7.60;99.90
44513;DHT22;30219;50.588;9.504;2023-01-08T05:36:26;7.60;99.90
44513;DHT22;30219;50.588;9.504;2023-01-08T05:38:53;7.60;99.90
44513;DHT22;30219;50.588;9.504;2023-01-08T05:41:19;7.60;99.90
44513;DHT22;30219;50.588;9.504;2023-01-08T05:43:44;7.70;99.90
44513;DHT22;30219;50.588;9.504;2023-01-08T05:46:10;7.70;99.90
44513;DHT22;30219;50.588;9.504;2023-01-08T05:48:36;7.70;99.90
44513;DHT22;30219;50.588;9.504;2023-01-08T05:51:02;7.70;99.90
44513;DHT22;30219;50.588;9.504;2023-01-08T05:53:27;7.70;99.90
44513;DHT22;30219;50.588;9.504;2023-01-08T05:56:01;7.60;99.90
44513;DHT22;30219;50.588;9.504;2023-01-08T05:58:27;7.70;99.90
44513;DHT22;30219;50.588;9.504;2023-01-08T06:00:54;7.70;99.90
44513;DHT22;30219;50.588;9.504;2023-01-08T06:03:24;7.70;99.90
44513;DHT22;30219;50.588;9.504;2023-01-08T06:05:50;7.70;99.90
44513;DHT22;30219;50.588;9.504;2023-01-08T06:08:15;7.70;99.90
44513;DHT22;30219;50.588;9.504;2023-01-08T06:10:41;7.80;99.90
44513;DHT22;30219;50.588;9.504;2023-01-08T06:13:08;7.80;99.90
44513;DHT22;30219;50.588;9.504;2023-01-08T06:15:36;7.70;99.90
44513;DHT22;30219;50.588;9.504;2023-01-08T06:18:03;7.80;99.90
44513;DHT22;30219;50.588;9.504;2023-01-08T06:20:29;7.80;99.90
44513;DHT22;30219;50.588;9.504;2023-01-08T06:22:54;7.90;99.90
44513;DHT22;30219;50.588;9.504;2023-01-08T06:25:20;7.80;99.90
44513;DHT22;30219;50.588;9.504;2023-01-08T06:27:52;7.80;99.90
44513;DHT22;30219;50.588;9.504;2023-01-08T06:30:18;7.80;99.90
44513;DHT22;30219;50.588;9.504;2023-01-08T06:32:43;7.70;99.90
44513;DHT22;30219;50.588;9.504;2023-01-08T06:35:09;7.70;99.90
44513;DHT22;30219;50.588;9.504;2023-01-08T06:37:35;7.70;99.90
44513;DHT22;30219;50.588;9.504;2023-01-08T06:40:01;7.70;99.90
44513;DHT22;30219;50.588;9.504;2023-01-08T06:42:26;7.70;99.90
44513;DHT22;30219;50.588;9.504;2023-01-08T06:44:52;7.70;99.90
44513;DHT22;30219;50.588;9.504;2023-01-08T06:47:17;7.70;99.90
44513;DHT22;30219;50.588;9.504;2023-01-08T06:49:43;7.60;99.90
44513;DHT22;30219;50.588;9.504;2023-01-08T06:52:09;7.70;99.90
44513;DHT22;30219;50.588;9.504;2023-01-08T06:54:35;7.60;99.90
44513;DHT22;30219;50.588;9.504;2023-01-08T06:57:00;7.60;99.90
44513;DHT22;30219;50.588;9.504;2023-01-08T06:59:26;7.60;99.90
44513;DHT22;30219;50.588;9.504;2023-01-08T07:01:51;7.60;99.90
44513;DHT22;30219;50.588;9.504;2023-01-08T07:04:17;7.70;99.90
44513;DHT22;30219;50.588;9.504;2023-01-08T07:06:43;7.70;99.90
44513;DHT22;30219;50.588;9.504;2023-01-08T07:09:13;7.80;99.90
44513;DHT22;30219;50.588;9.504;2023-01-08T07:11:42;7.90;99.90
44513;DHT22;30219;50.588;9.504;2023-01-08T07:14:07;7.90;99.90
44513;DHT22;30219;50.588;9.504;2023-01-08T07:16:33;8.00;99.90
44513;DHT22;30219;50.588;9.504;2023-01-08T07:18:59;8.10;99.90
44513;DHT22;30219;50.588;9.504;2023-01-08T07:21:25;8.10;99.90
44513;DHT22;30219;50.588;9.504;2023-01-08T07:23:51;8.20;99.90
44513;DHT22;30219;50.588;9.504;2023-01-08T07:26:16;8.20;99.90
44513;DHT22;30219;50.588;9.504;2023-01-08T07:28:42;8.20;99.90
44513;DHT22;30219;50.588;9.504;2023-01-08T07:31:08;8.30;99.90
44513;DHT22;30219;50.588;9.504;2023-01-08T07:33:34;8.30;99.90
44513;DHT22;30219;50.588;9.504;2023-01-08T07:36:00;8.20;99.90
44513;DHT22;30219;50.588;9.504;2023-01-08T07:38:25;8.20;99.90
44513;DHT22;30219;50.588;9.504;2023-01-08T07:40:51;8.20;99.90
44513;DHT22;30219;50.588;9.504;2023-01-08T07:43:17;8.20;99.90
44513;DHT22;30219;50.588;9.504;2023-01-08T07:45:42;8.20;99.90
44513;DHT22;30219;50.588;9.504;2023-01-08T07:48:08;8.10;99.90
44513;DHT22;30219;50.588;9.504;2023-01-08T07:50:35;8.20;99.90
44513;DHT22;30219;50.588;9.504;2023-01-08T07:53:01;8.20;99.90
44513;DHT22;30219;50.588;9.504;2023-01-08T07:55:28;8.10;99.90
44513;DHT22;30219;50.588;9.504;2023-01-08T07:57:55;8.10;99.90
44513;DHT22;30219;50.588;9.504;2023-01-08T08:00:20;8.00;99.90
44513;DHT22;30219;50.588;9.504;2023-01-08T08:02:46;8.10;99.90
44513;DHT22;30219;50.588;9.504;2023-01-08T08:05:12;8.10;99.90
44513;DHT22;30219;50.588;9.504;2023-01-08T08:07:37;8.10;99.90
44513;DHT22;30219;50.588;9.504;2023-01-08T08:10:03;8.10;99.90
44513;DHT22;30219;50.588;9.504;2023-01-08T08:12:29;8.10;99.90
44513;DHT22;30219;50.588;9.504;2023-01-08T08:14:55;8.00;99.90
44513;DHT22;30219;50.588;9.504;2023-01-08T08:17:20;8.10;99.90
44513;DHT22;30219;50.588;9.504;2023-01-08T08:19:46;8.10;99.90
44513;DHT22;30219;50.588;9.504;2023-01-08T08:22:12;8.10;99.90
44513;DHT22;30219;50.588;9.504;2023-01-08T08:24:38;8.10;99.90
44513;DHT22;30219;50.588;9.504;2023-01-08T08:27:03;8.10;99.90
44513;DHT22;30219;50.588;9.504;2023-01-08T08:29:29;8.10;99.90
44513;DHT22;30219;50.588;9.504;2023-01-08T08:31:55;8.10;99.90
44513;DHT22;30219;50.588;9.504;2023-01-08T08:34:20;8.20;99.90
44513;DHT22;30219;50.588;9.504;2023-01-08T08:36:47;8.10;99.90
44513;DHT22;30219;50.588;9.504;2023-01-08T08:39:13;8.10;99.90
44513;DHT22;30219;50.588;9.504;2023-01-08T08:41:39;8.10;99.90
44513;DHT22;30219;50.588;9.504;2023-01-08T08:44:04;8.10;99.90
44513;DHT22;30219;50.588;9.504;2023-01-08T08:46:30;8.10;99.90
44513;DHT22;30219;50.588;9.504;2023-01-08T08:48:55;8.00;99.90
44513;DHT22;30219;50.588;9.504;2023-01-08T08:51:21;8.00;99.90
44513;DHT22;30219;50.588;9.504;2023-01-08T08:53:47;8.00;99.90
44513;DHT22;30219;50.588;9.504;2023-01-08T08:56:12;8.10;99.90
44513;DHT22;30219;50.588;9.504;2023-01-08T08:58:38;8.00;99.90
44513;DHT22;30219;50.588;9.504;2023-01-08T09:01:06;7.90;99.90
44513;DHT22;30219;50.588;9.504;2023-01-08T09:03:33;8.00;99.90
44513;DHT22;30219;50.588;9.504;2023-01-08T09:05:59;8.00;99.90
44513;DHT22;30219;50.588;9.504;2023-01-08T09:08:24;8.00;99.90
44513;DHT22;30219;50.588;9.504;2023-01-08T09:10:50;8.00;99.90
44513;DHT22;30219;50.588;9.504;2023-01-08T09:13:16;7.90;99.90
44513;DHT22;30219;50.588;9.504;2023-01-08T09:15:41;8.10;99.90
44513;DHT22;30219;50.588;9.504;2023-01-08T09:18:07;8.10;99.90
44513;DHT22;30219;50.588;9.504;2023-01-08T09:20:33;8.20;99.90
44513;DHT22;30219;50.588;9.504;2023-01-08T09:22:59;8.20;99.90
44513;DHT22;30219;50.588;9.504;2023-01-08T09:25:24;8.10;99.90
44513;DHT22;30219;50.588;9.504;2023-01-08T09:28:07;8.20;99.90
44513;DHT22;30219;50.588;9.504;2023-01-08T09:30:36;8.10;99.90
44513;DHT22;30219;50.588;9.504;2023-01-08T09:33:02;8.10;99.90
44513;DHT22;30219;50.588;9.504;2023-01-08T09:35:29;8.10;99.90
44513;DHT22;30219;50.588;9.504;2023-01-08T09:37:55;8.10;99.90
44513;DHT22;30219;50.588;9.504;2023-01-08T09:40:33;8.10;99.90
44513;DHT22;30219;50.588;9.504;2023-01-08T09:43:00;8.20;99.90
44513;DHT22;30219;50.588;9.504;2023-01-08T09:45:30;8.20;99.90
44513;DHT22;30219;50.588;9.504;2023-01-08T09:48:04;8.20;99.90
44513;DHT22;30219;50.588;9.504;2023-01-08T09:50:30;8.10;99.90
44513;DHT22;30219;50.588;9.504;2023-01-08T09:52:57;8.20;99.90
44513;DHT22;30219;50.588;9.504;2023-01-08T09:55:23;8.20;99.90
44513;DHT22;30219;50.588;9.504;2023-01-08T09:57:49;8.30;99.90
44513;DHT22;30219;50.588;9.504;2023-01-08T10:00:18;8.30;99.90
44513;DHT22;30219;50.588;9.504;2023-01-08T10:02:45;8.20;99.90
44513;DHT22;30219;50.588;9.504;2023-01-08T10:05:16;8.20;99.90
44513;DHT22;30219;50.588;9.504;2023-01-08T10:07:43;8.10;99.90
44513;DHT22;30219;50.588;9.504;2023-01-08T10:10:21;8.10;99.90
44513;DHT22;30219;50.588;9.504;2023-01-08T10:12:48;8.20;99.90
44513;DHT22;30219;50.588;9.504;2023-01-08T10:15:16;8.20;99.90
44513;DHT22;30219;50.588;9.504;2023-01-08T10:17:58;8.10;99.90
44513;DHT22;30219;50.588;9.504;2023-01-08T10:20:26;8.10;99.90
44513;DHT22;30219;50.588;9.504;2023-01-08T10:22:53;8.10;99.90
44513;DHT22;30219;50.588;9.504;2023-01-08T10:25:26;8.10;99.90
44513;DHT22;30219;50.588;9.504;2023-01-08T10:27:57;8.10;99.90
44513;DHT22;30219;50.588;9.504;2023-01-08T10:30:36;8.10;99.90
44513;DHT22;30219;50.588;9.504;2023-01-08T10:33:22;8.20;99.90
44513;DHT22;30219;50.588;9.504;2023-01-08T10:36:02;8.20;99.90
44513;DHT22;30219;50.588;9.504;2023-01-08T10:38:31;8.20;99.90
44513;DHT22;30219;50.588;9.504;2023-01-08T10:40:58;8.20;99.90
44513;DHT22;30219;50.588;9.504;2023-01-08T10:43:28;8.30;99.90
44513;DHT22;30219;50.588;9.504;2023-01-08T10:48:29;8.20;99.90
44513;DHT22;30219;50.588;9.504;2023-01-08T10:51:19;8.20;99.90
44513;DHT22;30219;50.588;9.504;2023-01-08T10:53:45;8.20;99.90
44513;DHT22;30219;50.588;9.504;2023-01-08T10:58:46;8.30;99.90
44513;DHT22;30219;50.588;9.504;2023-01-08T11:01:27;8.20;99.90
44513;DHT22;30219;50.588;9.504;2023-01-08T11:04:01;8.20;99.90
44513;DHT22;30219;50.588;9.504;2023-01-08T11:06:40;8.30;99.90
44513;DHT22;30219;50.588;9.504;2023-01-08T11:09:21;8.30;99.90
44513;DHT22;30219;50.588;9.504;2023-01-08T11:11:47;8.30;99.90
44513;DHT22;30219;50.588;9.504;2023-01-08T11:14:24;8.30;99.90
44513;DHT22;30219;50.588;9.504;2023-01-08T11:16:54;8.30;99.90
44513;DHT22;30219;50.588;9.504;2023-01-08T11:19:26;8.30;99.90
44513;DHT22;30219;50.588;9.504;2023-01-08T11:22:03;8.30;99.90
44513;DHT22;30219;50.588;9.504;2023-01-08T11:24:36;8.30;99.90
44513;DHT22;30219;50.588;9.504;2023-01-08T11:27:17;8.30;99.90
44513;DHT22;30219;50.588;9.504;2023-01-08T11:33:04;8.30;99.90
44513;DHT22;30219;50.588;9.504;2023-01-08T11:35:51;8.30;99.90
44513;DHT22;30219;50.588;9.504;2023-01-08T11:38:18;8.30;99.90
44513;DHT22;30219;50.588;9.504;2023-01-08T11:43:56;8.30;99.90
44513;DHT22;30219;50.588;9.504;2023-01-08T11:46:31;8.30;99.90
44513;DHT22;30219;50.588;9.504;2023-01-08T11:52:54;8.30;99.90
44513;DHT22;30219;50.588;9.504;2023-01-08T11:55:03;8.40;99.90
44513;DHT22;30219;50.588;9.504;2023-01-08T12:00:55;8.40;99.90
44513;DHT22;30219;50.588;9.504;2023-01-08T12:06:26;8.30;99.90
44513;DHT22;30219;50.588;9.504;2023-01-08T12:11:51;8.40;99.90
44513;DHT22;30219;50.588;9.504;2023-01-08T12:25:32;8.40;99.90
44513;DHT22;30219;50.588;9.504;2023-01-08T12:34:10;8.40;99.90
44513;DHT22;30219;50.588;9.504;2023-01-08T12:36:40;8.50;99.90
44513;DHT22;30219;50.588;9.504;2023-01-08T12:39:23;8.50;99.90
44513;DHT22;30219;50.588;9.504;2023-01-08T12:41:52;8.50;99.90
44513;DHT22;30219;50.588;9.504;2023-01-08T12:44:24;8.50;99.90
44513;DHT22;30219;50.588;9.504;2023-01-08T12:46:52;8.50;99.90
44513;DHT22;30219;50.588;9.504;2023-01-08T12:49:25;8.60;99.90
44513;DHT22;30219;50.588;9.504;2023-01-08T12:52:07;8.60;99.90
44513;DHT22;30219;50.588;9.504;2023-01-08T12:57:28;8.60;99.90
44513;DHT22;30219;50.588;9.504;2023-01-08T13:02:55;8.70;99.90
44513;DHT22;30219;50.588;9.504;2023-01-08T13:07:54;8.60;99.90
44513;DHT22;30219;50.588;9.504;2023-01-08T13:10:33;8.70;99.90
44513;DHT22;30219;50.588;9.504;2023-01-08T13:12:59;8.70;99.90
44513;DHT22;30219;50.588;9.504;2023-01-08T13:15:28;8.70;99.90
44513;DHT22;30219;50.588;9.504;2023-01-08T13:18:06;8.70;99.90
44513;DHT22;30219;50.588;9.504;2023-01-08T13:20:33;8.70;99.90
44513;DHT22;30219;50.588;9.504;2023-01-08T13:23:03;8.70;99.90
44513;DHT22;30219;50.588;9.504;2023-01-08T13:25:30;8.70;99.90
44513;DHT22;30219;50.588;9.504;2023-01-08T13:27:56;8.60;99.90
44513;DHT22;30219;50.588;9.504;2023-01-08T13:30:38;8.70;99.90
44513;DHT22;30219;50.588;9.504;2023-01-08T13:33:40;8.70;99.90
44513;DHT22;30219;50.588;9.504;2023-01-08T13:36:26;8.60;99.90
44513;DHT22;30219;50.588;9.504;2023-01-08T13:44:28;8.60;99.90
44513;DHT22;30219;50.588;9.504;2023-01-08T13:47:03;8.70;99.90
44513;DHT22;30219;50.588;9.504;2023-01-08T13:49:45;8.70;99.90
44513;DHT22;30219;50.588;9.504;2023-01-08T13:52:38;8.70;99.90
44513;DHT22;30219;50.588;9.504;2023-01-08T13:55:20;8.70;99.90
44513;DHT22;30219;50.588;9.504;2023-01-08T13:57:51;8.70;99.90
44513;DHT22;30219;50.588;9.504;2023-01-08T14:00:22;8.80;99.90
44513;DHT22;30219;50.588;9.504;2023-01-08T14:02:48;8.80;99.90
44513;DHT22;30219;50.588;9.504;2023-01-08T14:07:45;8.80;99.90
44513;DHT22;30219;50.588;9.504;2023-01-08T14:10:13;8.80;99.90
44513;DHT22;30219;50.588;9.504;2023-01-08T14:12:39;8.80;99.90
44513;DHT22;30219;50.588;9.504;2023-01-08T14:15:20;8.80;99.90
44513;DHT22;30219;50.588;9.504;2023-01-08T14:17:47;8.80;99.90
44513;DHT22;30219;50.588;9.504;2023-01-08T14:20:21;8.80;99.90
44513;DHT22;30219;50.588;9.504;2023-01-08T14:22:48;8.90;99.90
44513;DHT22;30219;50.588;9.504;2023-01-08T14:25:16;8.90;99.90
44513;DHT22;30219;50.588;9.504;2023-01-08T14:27:42;8.90;99.90
44513;DHT22;30219;50.588;9.504;2023-01-08T14:30:18;8.80;99.90
44513;DHT22;30219;50.588;9.504;2023-01-08T14:32:44;8.80;99.90
44513;DHT22;30219;50.588;9.504;2023-01-08T14:35:15;8.80;99.90
44513;DHT22;30219;50.588;9.504;2023-01-08T14:37:42;8.80;99.90
44513;DHT22;30219;50.588;9.504;2023-01-08T14:40:16;8.80;99.90
44513;DHT22;30219;50.588;9.504;2023-01-08T14:42:43;8.70;99.90
44513;DHT22;30219;50.588;9.504;2023-01-08T14:45:28;8.70;99.90
44513;DHT22;30219;50.588;9.504;2023-01-08T14:50:41;8.80;99.90
44513;DHT22;30219;50.588;9.504;2023-01-08T14:53:22;8.80;99.90
44513;DHT22;30219;50.588;9.504;2023-01-08T14:55:51;8.80;99.90
44513;DHT22;30219;50.588;9.504;2023-01-08T14:58:21;8.70;99.90
44513;DHT22;30219;50.588;9.504;2023-01-08T15:00:52;8.70;99.90
44513;DHT22;30219;50.588;9.504;2023-01-08T15:03:30;8.70;99.90
44513;DHT22;30219;50.588;9.504;2023-01-08T15:05:56;8.70;99.90
44513;DHT22;30219;50.588;9.504;2023-01-08T15:08:25;8.80;99.90
44513;DHT22;30219;50.588;9.504;2023-01-08T15:11:05;8.70;99.90
44513;DHT22;30219;50.588;9.504;2023-01-08T15:13:35;8.70;99.90
44513;DHT22;30219;50.588;9.504;2023-01-08T15:16:36;8.70;99.90
44513;DHT22;30219;50.588;9.504;2023-01-08T15:19:14;8.70;99.90
44513;DHT22;30219;50.588;9.504;2023-01-08T15:21:48;8.70;99.90
44513;DHT22;30219;50.588;9.504;2023-01-08T15:24:32;8.70;99.90
44513;DHT22;30219;50.588;9.504;2023-01-08T15:26:59;8.70;99.90
44513;DHT22;30219;50.588;9.504;2023-01-08T15:29:38;8.70;99.90
44513;DHT22;30219;50.588;9.504;2023-01-08T15:34:43;8.70;99.90
44513;DHT22;30219;50.588;9.504;2023-01-08T15:37:09;8.60;99.90
44513;DHT22;30219;50.588;9.504;2023-01-08T15:39:35;8.70;99.90
44513;DHT22;30219;50.588;9.504;2023-01-08T15:42:17;8.70;99.90
44513;DHT22;30219;50.588;9.504;2023-01-08T15:45:02;8.70;99.90
44513;DHT22;30219;50.588;9.504;2023-01-08T15:47:28;8.70;99.90
44513;DHT22;30219;50.588;9.504;2023-01-08T15:49:54;8.70;99.90
44513;DHT22;30219;50.588;9.504;2023-01-08T15:52:21;8.70;99.90
44513;DHT22;30219;50.588;9.504;2023-01-08T15:54:48;8.70;99.90
44513;DHT22;30219;50.588;9.504;2023-01-08T15:57:13;8.70;99.90
44513;DHT22;30219;50.588;9.504;2023-01-08T15:59:39;8.70;99.90
44513;DHT22;30219;50.588;9.504;2023-01-08T16:02:05;8.70;99.90
44513;DHT22;30219;50.588;9.504;2023-01-08T16:04:30;8.70;99.90
44513;DHT22;30219;50.588;9.504;2023-01-08T16:06:56;8.70;99.90
44513;DHT22;30219;50.588;9.504;2023-01-08T16:09:22;8.70;99.90
44513;DHT22;30219;50.588;9.504;2023-01-08T16:11:47;8.70;99.90
44513;DHT22;30219;50.588;9.504;2023-01-08T16:14:14;8.70;99.90
44513;DHT22;30219;50.588;9.504;2023-01-08T16:16:39;8.70;99.90
44513;DHT22;30219;50.588;9.504;2023-01-08T16:19:05;8.70;99.90
44513;DHT22;30219;50.588;9.504;2023-01-08T16:21:31;8.70;99.90
44513;DHT22;30219;50.588;9.504;2023-01-08T16:23:56;8.70;99.90
44513;DHT22;30219;50.588;9.504;2023-01-08T16:26:22;8.70;99.90
44513;DHT22;30219;50.588;9.504;2023-01-08T16:28:47;8.60;99.90
44513;DHT22;30219;50.588;9.504;2023-01-08T16:31:13;8.60;99.90
44513;DHT22;30219;50.588;9.504;2023-01-08T16:33:38;8.60;99.90
44513;DHT22;30219;50.588;9.504;2023-01-08T16:36:06;8.60;99.90
44513;DHT22;30219;50.588;9.504;2023-01-08T16:38:33;8.50;99.90
44513;DHT22;30219;50.588;9.504;2023-01-08T16:41:00;8.60;99.90
44513;DHT22;30219;50.588;9.504;2023-01-08T16:43:28;8.60;99.90
44513;DHT22;30219;50.588;9.504;2023-01-08T16:45:54;8.60;99.90
44513;DHT22;30219;50.588;9.504;2023-01-08T16:48:20;8.50;99.90
44513;DHT22;30219;50.588;9.504;2023-01-08T16:50:46;8.50;99.90
44513;DHT22;30219;50.588;9.504;2023-01-08T16:53:13;8.50;99.90
44513;DHT22;30219;50.588;9.504;2023-01-08T16:55:41;8.50;99.90
44513;DHT22;30219;50.588;9.504;2023-01-08T16:58:08;8.50;99.90
44513;DHT22;30219;50.588;9.504;2023-01-08T17:00:35;8.60;99.90
44513;DHT22;30219;50.588;9.504;2023-01-08T17:03:01;8.50;99.90
44513;DHT22;30219;50.588;9.504;2023-01-08T17:05:27;8.60;99.90
44513;DHT22;30219;50.588;9.504;2023-01-08T17:07:53;8.60;99.90
44513;DHT22;30219;50.588;9.504;2023-01-08T17:10:21;8.50;99.90
44513;DHT22;30219;50.588;9.504;2023-01-08T17:12:47;8.50;99.90
44513;DHT22;30219;50.588;9.504;2023-01-08T17:15:13;8.50;99.90
44513;DHT22;30219;50.588;9.504;2023-01-08T17:17:39;8.50;99.90
44513;DHT22;30219;50.588;9.504;2023-01-08T17:20:05;8.50;99.90
44513;DHT22;30219;50.588;9.504;2023-01-08T17:22:31;8.50;99.90
44513;DHT22;30219;50.588;9.504;2023-01-08T17:24:56;8.50;99.90